createdAt,value
2023-05-14T00:01:56.063Z,12.77
2023-05-14T00:03:58.991Z,12.45
2023-05-14T00:06:02.137Z,12.63
2023-05-14T00:08:06.738Z,12.25
2023-05-14T00:10:10.602Z,12.70
2023-05-14T00:12:13.590Z,12.18
2023-05-14T00:14:16.596Z,12.02
2023-05-14T00:16:19.515Z,13.05
2023-05-14T00:18:22.457Z,12.57
2023-05-14T00:20:25.475Z,11.90
2023-05-14T00:22:28.692Z,11.43
2023-05-14T00:24:33.131Z,12.25
2023-05-14T00:26:36.089Z,12.18
2023-05-14T00:28:39.138Z,12.63
2023-05-14T00:30:42.207Z,11.80
2023-05-14T00:32:45.152Z,12.45
2023-05-14T00:34:48.157Z,11.82
2023-05-14T00:36:51.828Z,12.27
2023-05-14T00:38:54.931Z,11.23
2023-05-14T00:40:59.261Z,11.73
2023-05-14T00:43:02.389Z,11.82
2023-05-14T00:45:07.372Z,12.30
2023-05-14T00:47:10.303Z,11.73
2023-05-14T00:49:14.974Z,12.00
2023-05-14T00:51:19.381Z,12.27
2023-05-14T00:53:22.640Z,12.07
2023-05-14T00:55:25.960Z,10.93
2023-05-14T00:57:30.372Z,11.65
2023-05-14T00:59:33.349Z,11.82
2023-05-14T01:01:36.419Z,11.75
2023-05-14T01:03:39.614Z,10.70
2023-05-14T01:05:53.787Z,10.85
2023-05-14T01:08:05.709Z,11.32
2023-05-14T01:10:14.835Z,11.02
2023-05-14T01:12:22.748Z,11.90
2023-05-14T01:14:45.655Z,11.43
2023-05-14T01:16:50.700Z,11.10
2023-05-14T01:18:55.842Z,11.75
2023-05-14T01:20:58.695Z,10.38
2023-05-14T01:23:03.215Z,11.15
2023-05-14T01:25:07.546Z,10.98
2023-05-14T01:27:18.014Z,12.07
2023-05-14T01:29:23.459Z,11.02
2023-05-14T01:31:28.972Z,11.50
2023-05-14T01:35:37.906Z,11.55
2023-05-14T01:37:42.907Z,11.07
2023-05-14T01:39:51.336Z,11.18
2023-05-14T01:41:55.662Z,10.93
2023-05-14T01:43:58.765Z,10.75
2023-05-14T01:46:01.972Z,11.38
2023-05-14T01:48:05.626Z,11.32
2023-05-14T01:50:09.152Z,11.43
2023-05-14T01:52:12.444Z,10.98
2023-05-14T01:54:15.462Z,11.48
2023-05-14T01:56:22.066Z,11.43
2023-05-14T01:58:25.135Z,10.85
2023-05-14T02:00:28.252Z,11.23
2023-05-14T02:02:31.164Z,10.95
2023-05-14T02:04:34.030Z,11.40
2023-05-14T02:06:37.240Z,10.65
2023-05-14T02:08:40.333Z,10.55
2023-05-14T02:10:43.300Z,10.52
2023-05-14T02:12:47.731Z,11.48
2023-05-14T02:14:50.894Z,11.27
2023-05-14T02:16:53.725Z,11.35
2023-05-14T02:18:56.788Z,10.63
2023-05-14T02:20:59.894Z,11.98
2023-05-14T02:23:02.997Z,11.63
2023-05-14T02:25:06.789Z,10.32
2023-05-14T02:27:09.785Z,11.32
2023-05-14T02:29:14.161Z,11.32
2023-05-14T02:31:19.677Z,10.90
2023-05-14T02:35:25.461Z,10.07
2023-05-14T02:37:28.324Z,10.77
2023-05-14T02:39:31.356Z,11.35
2023-05-14T02:41:34.258Z,11.90
2023-05-14T02:43:37.226Z,13.07
2023-05-14T02:45:41.672Z,11.63
2023-05-14T02:47:44.706Z,11.18
2023-05-14T02:49:47.661Z,11.60
2023-05-14T02:51:50.665Z,12.05
2023-05-14T02:53:53.694Z,11.63
2023-05-14T02:55:56.681Z,10.30
2023-05-14T02:57:59.862Z,11.57
2023-05-14T03:00:02.800Z,11.18
2023-05-14T03:02:09.451Z,11.55
2023-05-14T03:04:13.178Z,11.68
2023-05-14T03:06:16.081Z,11.60
2023-05-14T03:08:19.359Z,11.32
2023-05-14T03:10:22.386Z,11.30
2023-05-14T03:12:25.609Z,10.80
2023-05-14T03:14:28.489Z,11.00
2023-05-14T03:16:31.465Z,11.07
2023-05-14T03:18:37.000Z,11.40
2023-05-14T03:20:40.017Z,11.68
2023-05-14T03:22:43.175Z,11.77
2023-05-14T03:24:46.236Z,12.23
2023-05-14T03:26:49.475Z,11.70
2023-05-14T03:28:52.483Z,12.25
2023-05-14T03:30:55.395Z,12.63
2023-05-14T03:32:58.554Z,12.70
2023-05-14T03:35:02.886Z,12.48
2023-05-14T03:37:06.053Z,12.32
2023-05-14T03:39:09.865Z,11.82
2023-05-14T03:41:12.818Z,11.38
2023-05-14T03:43:16.613Z,12.63
2023-05-14T03:45:20.018Z,12.40
2023-05-14T03:47:22.918Z,12.77
2023-05-14T03:49:26.297Z,13.20
2023-05-14T03:51:32.127Z,12.80
2023-05-14T03:53:35.079Z,12.55
2023-05-14T03:55:37.998Z,12.25
2023-05-14T03:57:41.461Z,13.13
2023-05-14T03:59:44.398Z,13.00
2023-05-14T04:01:49.301Z,12.30
2023-05-14T04:03:52.454Z,13.95
2023-05-14T04:05:56.025Z,12.75
2023-05-14T04:08:00.506Z,12.32
2023-05-14T04:10:04.768Z,12.97
2023-05-14T04:12:10.742Z,13.45
2023-05-14T04:14:13.899Z,11.88
2023-05-14T04:16:17.096Z,12.32
2023-05-14T04:18:20.118Z,13.27
2023-05-14T04:20:25.024Z,13.02
2023-05-14T04:22:28.212Z,13.30
2023-05-14T04:24:32.679Z,12.38
2023-05-14T04:26:35.775Z,12.63
2023-05-14T04:28:38.721Z,12.73
2023-05-14T04:30:41.820Z,11.55
2023-05-14T04:32:44.768Z,12.27
2023-05-14T04:34:47.782Z,11.60
2023-05-14T04:36:51.785Z,12.45
2023-05-14T04:38:54.674Z,12.30
2023-05-14T04:40:58.973Z,12.52
2023-05-14T04:43:01.950Z,12.35
2023-05-14T04:45:05.684Z,11.20
2023-05-14T04:47:08.672Z,11.57
2023-05-14T04:49:11.981Z,10.95
2023-05-14T04:51:14.984Z,11.90
2023-05-14T04:53:17.933Z,11.52
2023-05-14T04:55:20.933Z,13.00
2023-05-14T04:57:25.373Z,13.00
2023-05-14T04:59:28.383Z,13.73
2023-05-14T05:01:31.351Z,13.90
2023-05-14T05:03:34.317Z,14.25
2023-05-14T05:05:37.260Z,14.02
2023-05-14T05:07:40.263Z,13.23
2023-05-14T05:09:44.278Z,12.82
2023-05-14T05:11:47.209Z,12.40
2023-05-14T05:13:51.548Z,12.55
2023-05-14T05:15:54.560Z,13.15
2023-05-14T05:17:57.402Z,13.43
2023-05-14T05:20:00.408Z,12.45
2023-05-14T05:22:03.559Z,13.20
2023-05-14T05:24:07.160Z,12.23
2023-05-14T05:26:10.077Z,12.63
2023-05-14T05:28:13.179Z,12.48
2023-05-14T05:30:17.595Z,12.40
2023-05-14T05:32:20.558Z,13.27
2023-05-14T05:34:23.624Z,13.73
2023-05-14T05:36:26.761Z,12.30
2023-05-14T05:38:29.643Z,13.02
2023-05-14T05:40:32.597Z,12.63
2023-05-14T05:42:35.610Z,12.50
2023-05-14T05:44:38.819Z,12.40
2023-05-14T05:46:43.196Z,12.07
2023-05-14T05:48:46.519Z,11.98
2023-05-14T05:50:50.678Z,12.18
2023-05-14T05:52:53.905Z,12.57
2023-05-14T05:54:56.847Z,11.35
2023-05-14T05:57:00.052Z,12.35
2023-05-14T05:59:04.357Z,11.60
2023-05-14T06:01:08.087Z,12.13
2023-05-14T06:03:13.063Z,12.98
2023-05-14T06:05:16.209Z,12.38
2023-05-14T06:07:19.480Z,12.73
2023-05-14T06:09:22.451Z,12.98
2023-05-14T06:11:25.398Z,12.82
2023-05-14T06:13:28.488Z,12.80
2023-05-14T06:15:31.567Z,12.07
2023-05-14T06:17:34.725Z,12.73
2023-05-14T06:19:39.189Z,11.88
2023-05-14T06:21:42.133Z,11.90
2023-05-14T06:23:45.261Z,11.55
2023-05-14T06:25:50.756Z,11.75
2023-05-14T06:29:57.093Z,11.73
2023-05-14T06:32:02.593Z,11.82
2023-05-14T06:34:05.738Z,11.05
2023-05-14T06:36:10.880Z,12.25
2023-05-14T06:38:13.796Z,11.60
2023-05-14T06:40:17.178Z,12.73
2023-05-14T06:42:20.246Z,12.82
2023-05-14T06:44:23.777Z,11.43
2023-05-14T06:46:26.707Z,11.68
2023-05-14T06:48:29.966Z,11.75
2023-05-14T06:50:32.974Z,10.90
2023-05-14T06:52:37.670Z,11.68
2023-05-14T06:54:40.608Z,12.50
2023-05-14T06:56:43.453Z,12.07
2023-05-14T06:58:46.691Z,11.70
2023-05-14T07:00:49.685Z,10.63
2023-05-14T07:02:52.675Z,9.73
2023-05-14T07:04:56.296Z,10.77
2023-05-14T07:06:59.257Z,11.18
2023-05-14T07:09:03.880Z,10.50
2023-05-14T07:11:06.775Z,9.48
2023-05-14T07:13:09.927Z,10.48
2023-05-14T07:15:13.041Z,10.65
2023-05-14T07:17:16.014Z,9.52
2023-05-14T07:19:19.046Z,10.90
2023-05-14T07:21:22.033Z,11.88
2023-05-14T07:23:25.129Z,11.85
2023-05-14T07:25:29.573Z,11.63
2023-05-14T07:27:32.523Z,11.82
2023-05-14T07:29:35.484Z,10.68
2023-05-14T07:31:38.669Z,11.38
2023-05-14T07:33:41.640Z,11.23
2023-05-14T07:35:44.926Z,9.02
2023-05-14T07:37:47.956Z,9.52
2023-05-14T07:39:51.236Z,8.35
2023-05-14T07:41:55.939Z,8.40
2023-05-14T07:43:58.817Z,8.85
2023-05-14T07:46:01.697Z,8.25
2023-05-14T07:48:05.098Z,8.68
2023-05-14T07:50:09.235Z,8.27
2023-05-14T07:52:12.361Z,8.35
2023-05-14T07:54:15.333Z,8.38
2023-05-14T07:56:18.510Z,7.57
2023-05-14T07:58:23.838Z,7.30
2023-05-14T08:00:27.019Z,7.38
2023-05-14T08:02:30.155Z,7.45
2023-05-14T08:04:33.231Z,7.70
2023-05-14T08:06:36.352Z,7.38
2023-05-14T08:08:39.347Z,6.63
2023-05-14T08:10:42.207Z,8.10
2023-05-14T08:12:45.278Z,7.60
2023-05-14T08:14:49.598Z,6.75
2023-05-14T08:16:52.731Z,7.18
2023-05-14T08:18:56.128Z,7.53
2023-05-14T08:20:59.069Z,7.40
2023-05-14T08:23:02.124Z,7.00
2023-05-14T08:25:06.760Z,7.20
2023-05-14T08:27:10.010Z,7.20
2023-05-14T08:29:15.461Z,8.05
2023-05-14T08:31:20.810Z,7.13
2023-05-14T08:33:23.980Z,7.37
2023-05-14T08:35:26.902Z,6.70
2023-05-14T08:37:29.806Z,7.07
2023-05-14T08:39:32.658Z,7.40
2023-05-14T08:41:36.707Z,7.75
2023-05-14T08:43:46.492Z,7.30
2023-05-14T08:45:54.157Z,6.30
2023-05-14T08:48:00.169Z,7.55
2023-05-14T08:50:05.306Z,6.22
2023-05-14T08:52:09.085Z,6.20
2023-05-14T08:54:15.694Z,6.00
2023-05-14T08:56:19.737Z,6.15
2023-05-14T08:58:22.771Z,6.70
2023-05-14T09:00:26.970Z,6.22
2023-05-14T09:02:31.799Z,6.85
2023-05-14T09:04:37.361Z,6.78
2023-05-14T09:06:42.587Z,6.32
2023-05-14T09:08:46.666Z,6.70
2023-05-14T09:10:49.603Z,6.15
2023-05-14T09:12:52.473Z,7.05
2023-05-14T09:14:55.626Z,6.10
2023-05-14T09:16:58.727Z,6.20
2023-05-14T09:19:02.186Z,6.63
2023-05-14T09:21:08.659Z,7.35
2023-05-14T09:23:11.699Z,6.70
2023-05-14T09:25:14.566Z,6.05
2023-05-14T09:27:22.485Z,6.65
2023-05-14T09:29:26.328Z,6.90
2023-05-14T09:31:31.015Z,6.10
2023-05-14T09:33:34.099Z,6.53
2023-05-14T09:35:41.709Z,7.15
2023-05-14T09:37:47.918Z,6.28
2023-05-14T09:39:51.345Z,6.55
2023-05-14T09:41:54.538Z,6.85
2023-05-14T09:43:58.837Z,7.38
2023-05-14T09:46:01.685Z,6.82
2023-05-14T09:48:05.190Z,6.78
2023-05-14T09:50:09.718Z,6.72
2023-05-14T09:52:12.767Z,7.37
2023-05-14T09:54:17.277Z,6.70
2023-05-14T09:56:20.236Z,6.07
2023-05-14T09:58:23.075Z,7.25
2023-05-14T10:00:26.533Z,7.05
2023-05-14T10:02:38.090Z,7.97
2023-05-14T10:04:41.450Z,6.43
2023-05-14T10:06:47.910Z,6.90
2023-05-14T10:08:55.067Z,6.78
2023-05-14T10:10:59.972Z,7.10
2023-05-14T10:13:06.001Z,7.07
2023-05-14T10:15:16.872Z,6.18
2023-05-14T10:17:21.733Z,7.35
2023-05-14T10:19:25.937Z,6.95
2023-05-14T10:21:32.568Z,6.63
2023-05-14T10:23:41.045Z,6.88
2023-05-14T10:25:44.263Z,6.88
2023-05-14T10:27:49.096Z,5.72
2023-05-14T10:29:56.168Z,7.60
2023-05-14T10:31:59.075Z,7.45
2023-05-14T10:34:02.351Z,6.68
2023-05-14T10:36:08.489Z,5.85
2023-05-14T10:38:15.219Z,7.55
2023-05-14T10:40:19.580Z,6.85
2023-05-14T10:42:25.111Z,6.10
2023-05-14T10:44:30.335Z,6.75
2023-05-14T10:46:33.521Z,6.43
2023-05-14T10:48:38.025Z,6.68
2023-05-14T10:50:43.330Z,7.03
2023-05-14T10:52:46.670Z,6.80
2023-05-14T10:54:51.496Z,6.38
2023-05-14T10:56:54.614Z,7.20
2023-05-14T10:59:00.356Z,7.03
2023-05-14T11:01:06.907Z,6.50
2023-05-14T11:03:11.041Z,6.40
2023-05-14T11:05:16.187Z,6.25
2023-05-14T11:07:24.140Z,7.03
2023-05-14T11:09:27.451Z,6.47
2023-05-14T11:11:30.727Z,5.80
2023-05-14T11:13:34.867Z,6.75
2023-05-14T11:15:39.109Z,6.03
2023-05-14T11:17:44.819Z,5.82
2023-05-14T11:19:49.742Z,6.13
2023-05-14T11:21:53.837Z,6.18
2023-05-14T11:23:57.564Z,5.80
2023-05-14T11:26:00.422Z,5.82
2023-05-14T11:28:03.417Z,5.28
2023-05-14T11:30:12.675Z,5.50
2023-05-14T11:32:16.471Z,5.68
2023-05-14T11:34:21.979Z,5.55
2023-05-14T11:38:27.441Z,6.20
2023-05-14T11:40:30.684Z,5.30
2023-05-14T11:42:33.700Z,5.50
2023-05-14T11:44:38.836Z,5.53
2023-05-14T11:46:41.779Z,4.85
2023-05-14T11:48:44.901Z,4.63
2023-05-14T11:50:51.496Z,4.75
2023-05-14T11:52:57.431Z,5.18
2023-05-14T11:55:00.549Z,5.22
2023-05-14T11:57:09.227Z,5.00
2023-05-14T11:59:12.668Z,3.63
2023-05-14T12:01:16.436Z,4.72
2023-05-14T12:03:26.157Z,4.53
2023-05-14T12:05:29.363Z,4.05
2023-05-14T12:07:33.863Z,3.70
2023-05-14T12:09:39.514Z,3.40
2023-05-14T12:13:45.158Z,3.17
2023-05-14T12:15:49.030Z,3.17
2023-05-14T12:17:52.304Z,4.28
2023-05-14T12:19:57.655Z,3.63
2023-05-14T12:24:09.774Z,3.60
2023-05-14T12:26:13.664Z,3.70
2023-05-14T12:28:16.755Z,3.58
2023-05-14T12:30:21.468Z,3.30
2023-05-14T12:32:26.746Z,3.90
2023-05-14T12:34:29.762Z,4.05
2023-05-14T12:36:33.032Z,3.90
2023-05-14T12:38:38.078Z,3.97
2023-05-14T12:40:42.455Z,4.38
2023-05-14T12:42:45.387Z,4.13
2023-05-14T12:44:48.441Z,3.97
2023-05-14T12:46:51.446Z,4.22
2023-05-14T12:48:54.760Z,4.65
2023-05-14T12:50:57.776Z,4.55
2023-05-14T12:53:00.699Z,4.13
2023-05-14T12:55:04.108Z,4.05
2023-05-14T12:57:08.676Z,4.10
2023-05-14T12:59:11.647Z,4.37
2023-05-14T13:01:14.786Z,4.50
2023-05-14T13:03:17.780Z,4.65
2023-05-14T13:05:20.825Z,4.85
2023-05-14T13:07:23.926Z,4.50
2023-05-14T13:09:28.497Z,4.30
2023-05-14T13:11:32.431Z,4.07
2023-05-14T13:13:37.230Z,4.25
2023-05-14T13:15:40.190Z,4.72
2023-05-14T13:17:43.050Z,4.07
2023-05-14T13:19:46.213Z,4.20
2023-05-14T13:21:49.131Z,4.60
2023-05-14T13:23:52.267Z,4.55
2023-05-14T13:25:55.125Z,4.30
2023-05-14T13:27:58.113Z,4.22
2023-05-14T13:30:02.501Z,4.38
2023-05-14T13:32:06.254Z,4.60
2023-05-14T13:34:10.553Z,4.28
2023-05-14T13:36:15.374Z,4.60
2023-05-14T13:38:18.253Z,4.50
2023-05-14T13:40:21.350Z,4.60
2023-05-14T13:42:24.296Z,4.68
2023-05-14T13:44:27.387Z,4.50
2023-05-14T13:46:31.733Z,4.30
2023-05-14T13:48:36.014Z,4.47
2023-05-14T13:50:38.854Z,4.30
2023-05-14T13:52:41.802Z,4.30
2023-05-14T13:54:44.725Z,4.15
2023-05-14T13:56:47.838Z,4.03
2023-05-14T13:58:50.724Z,3.97
2023-05-14T14:00:54.176Z,4.55
2023-05-14T14:02:58.631Z,4.53
2023-05-14T14:05:01.662Z,3.60
2023-05-14T14:07:05.138Z,4.20
2023-05-14T14:09:08.200Z,4.53
2023-05-14T14:11:11.123Z,3.95
2023-05-14T14:13:14.168Z,4.10
2023-05-14T14:15:17.031Z,3.72
2023-05-14T14:17:19.968Z,3.78
2023-05-14T14:19:24.326Z,4.30
2023-05-14T14:21:27.372Z,3.70
2023-05-14T14:23:30.457Z,4.25
2023-05-14T14:25:33.488Z,4.22
2023-05-14T14:27:39.087Z,4.07
2023-05-14T14:31:44.853Z,4.15
2023-05-14T14:33:47.826Z,4.03
2023-05-14T14:35:52.257Z,4.00
2023-05-14T14:37:56.056Z,4.10
2023-05-14T14:39:58.956Z,4.78
2023-05-14T14:42:01.987Z,3.83
2023-05-14T14:44:05.901Z,4.40
2023-05-14T14:46:09.632Z,4.35
2023-05-14T14:48:29.156Z,4.30
2023-05-14T14:50:32.186Z,4.38
2023-05-14T14:52:36.963Z,4.60
2023-05-14T14:54:39.873Z,4.93
2023-05-14T14:56:43.808Z,4.60
2023-05-14T14:58:46.806Z,5.00
2023-05-14T15:00:51.567Z,4.85
2023-05-14T15:02:54.860Z,5.28
2023-05-14T15:04:57.806Z,4.55
2023-05-14T15:07:01.038Z,4.72
2023-05-14T15:09:05.660Z,4.47
2023-05-14T15:11:08.750Z,4.15
2023-05-14T15:13:12.717Z,4.90
2023-05-14T15:15:15.778Z,4.13
2023-05-14T15:17:18.642Z,4.43
2023-05-14T15:19:21.659Z,4.32
2023-05-14T15:21:24.764Z,4.57
2023-05-14T15:23:27.832Z,4.70
2023-05-14T15:25:32.255Z,4.50
2023-05-14T15:27:35.150Z,4.82
2023-05-14T15:29:38.088Z,4.43
2023-05-14T15:31:41.653Z,4.22
2023-05-14T15:33:44.479Z,4.82
2023-05-14T15:35:47.699Z,4.35
2023-05-14T15:37:50.648Z,4.47
2023-05-14T15:39:54.237Z,4.60
2023-05-14T15:41:58.668Z,4.38
2023-05-14T15:44:01.565Z,4.10
2023-05-14T15:46:04.417Z,5.30
2023-05-14T15:48:07.444Z,4.80
2023-05-14T15:50:10.446Z,4.90
2023-05-14T15:52:14.213Z,4.80
2023-05-14T15:54:17.117Z,4.55
2023-05-14T15:56:20.046Z,5.05
2023-05-14T15:58:24.507Z,5.35
2023-05-14T16:00:27.628Z,4.55
2023-05-14T16:02:30.835Z,5.32
2023-05-14T16:04:33.994Z,4.97
2023-05-14T16:06:36.938Z,5.43
2023-05-14T16:08:39.874Z,5.40
2023-05-14T16:10:42.696Z,4.75
2023-05-14T16:12:45.693Z,4.88
2023-05-14T16:14:50.611Z,4.85
2023-05-14T16:16:54.388Z,4.70
2023-05-14T16:18:57.478Z,5.07
2023-05-14T16:21:00.770Z,5.22
2023-05-14T16:23:03.636Z,6.95
2023-05-14T16:25:07.137Z,10.80
2023-05-14T16:27:10.038Z,8.30
2023-05-14T16:29:13.013Z,7.47
2023-05-14T16:31:17.378Z,12.43
2023-05-14T16:33:20.878Z,15.13
2023-05-14T16:35:24.095Z,13.48
2023-05-14T16:37:27.134Z,11.88
2023-05-14T16:39:30.320Z,10.52
2023-05-14T16:41:33.704Z,9.13
2023-05-14T16:43:36.622Z,7.22
2023-05-14T16:45:40.710Z,7.03
2023-05-14T16:47:45.375Z,6.60
2023-05-14T16:51:51.510Z,6.60
2023-05-14T16:53:55.644Z,7.10
2023-05-14T16:55:58.830Z,6.38
2023-05-14T16:58:01.760Z,6.13
2023-05-14T17:00:06.508Z,6.20
2023-05-14T17:02:09.628Z,6.25
2023-05-14T17:04:14.004Z,5.75
2023-05-14T17:06:17.055Z,5.07
2023-05-14T17:08:19.928Z,4.82
2023-05-14T17:10:24.205Z,5.40
2023-05-14T17:12:27.622Z,4.72
2023-05-14T17:14:30.713Z,4.38
2023-05-14T17:16:33.565Z,4.38
2023-05-14T17:18:36.486Z,4.93
2023-05-14T17:20:40.944Z,4.95
2023-05-14T17:22:43.903Z,4.90
2023-05-14T17:24:46.800Z,4.47
2023-05-14T17:26:49.980Z,4.72
2023-05-14T17:28:52.822Z,5.30
2023-05-14T17:30:55.676Z,4.85
2023-05-14T17:32:58.792Z,5.10
2023-05-14T17:35:01.964Z,4.70
2023-05-14T17:37:06.810Z,4.40
2023-05-14T17:39:09.792Z,5.03
2023-05-14T17:41:12.720Z,4.90
2023-05-14T17:43:15.819Z,4.82
2023-05-14T17:45:21.009Z,4.82
2023-05-14T17:47:24.060Z,4.78
2023-05-14T17:49:26.988Z,4.70
2023-05-14T17:51:30.142Z,5.38
2023-05-14T17:53:34.447Z,5.50
2023-05-14T17:55:43.810Z,6.32
2023-05-14T17:57:46.987Z,6.53
2023-05-14T17:59:49.935Z,7.25
2023-05-14T18:01:52.911Z,8.52
2023-05-14T18:03:55.871Z,7.65
2023-05-14T18:05:59.792Z,6.60
2023-05-14T18:08:02.826Z,8.40
2023-05-14T18:10:08.714Z,10.27
2023-05-14T18:12:11.646Z,11.27
2023-05-14T18:14:14.472Z,8.52
2023-05-14T18:16:17.564Z,10.85
2023-05-14T18:18:21.824Z,12.05
2023-05-14T18:20:24.764Z,9.98
2023-05-14T18:22:27.626Z,11.02
2023-05-14T18:24:30.612Z,8.70
2023-05-14T18:26:35.134Z,7.10
2023-05-14T18:28:38.278Z,6.17
2023-05-14T18:30:41.262Z,6.00
2023-05-14T18:32:45.311Z,5.03
2023-05-14T18:34:48.252Z,5.03
2023-05-14T18:36:51.402Z,5.78
2023-05-14T18:38:54.295Z,5.57
2023-05-14T18:40:57.237Z,5.95
2023-05-14T18:43:01.482Z,5.05
2023-05-14T18:45:05.100Z,4.75
2023-05-14T18:47:08.765Z,4.90
2023-05-14T18:49:12.124Z,5.15
2023-05-14T18:51:15.111Z,5.07
2023-05-14T18:53:18.046Z,4.82
2023-05-14T18:55:21.061Z,4.57
2023-05-14T18:57:24.305Z,4.90
2023-05-14T18:59:28.862Z,4.65
2023-05-14T19:01:31.874Z,4.45
2023-05-14T19:03:34.889Z,4.40
2023-05-14T19:05:38.191Z,4.65
2023-05-14T19:07:44.153Z,4.80
2023-05-14T19:09:47.256Z,4.68
2023-05-14T19:11:50.451Z,4.47
2023-05-14T19:13:53.720Z,4.88
2023-05-14T19:15:58.173Z,4.85
2023-05-14T19:18:01.700Z,4.67
2023-05-14T19:20:05.405Z,4.60
2023-05-14T19:22:08.591Z,4.90
2023-05-14T19:24:11.691Z,4.80
2023-05-14T19:26:14.660Z,4.55
2023-05-14T19:28:20.077Z,4.90
2023-05-14T19:32:28.079Z,4.55
2023-05-14T19:34:31.366Z,4.53
2023-05-14T19:36:34.217Z,4.47
2023-05-14T19:38:37.810Z,4.63
2023-05-14T19:40:40.901Z,4.95
2023-05-14T19:42:44.520Z,4.97
2023-05-14T19:44:47.732Z,4.97
2023-05-14T19:46:51.535Z,5.50
2023-05-14T19:48:55.906Z,5.63
2023-05-14T19:50:58.955Z,5.82
2023-05-14T19:53:02.608Z,5.70
2023-05-14T19:55:06.228Z,4.95
2023-05-14T19:57:10.108Z,5.43
2023-05-14T19:59:13.287Z,6.30
2023-05-14T20:01:16.504Z,6.20
2023-05-14T20:03:19.611Z,5.43
2023-05-14T20:05:24.209Z,7.13
2023-05-14T20:07:27.902Z,6.37
2023-05-14T20:09:30.752Z,6.65
2023-05-14T20:11:33.785Z,7.55
2023-05-14T20:13:37.180Z,7.57
2023-05-14T20:15:40.239Z,7.63
2023-05-14T20:17:43.240Z,6.57
2023-05-14T20:19:46.662Z,6.57
2023-05-14T20:21:51.169Z,6.68
2023-05-14T20:23:54.121Z,6.37
2023-05-14T20:25:57.036Z,6.60
2023-05-14T20:28:02.687Z,6.00
2023-05-14T20:30:06.967Z,6.72
2023-05-14T20:32:10.338Z,7.83
2023-05-14T20:34:13.161Z,6.85
2023-05-14T20:36:16.463Z,8.40
2023-05-14T20:38:20.889Z,8.73
2023-05-14T20:40:24.535Z,9.30
2023-05-14T20:42:27.546Z,9.15
2023-05-14T20:44:30.507Z,8.75
2023-05-14T20:46:33.581Z,9.32
2023-05-14T20:48:36.729Z,8.82
2023-05-14T20:50:39.512Z,8.48
2023-05-14T20:52:42.557Z,8.43
2023-05-14T20:54:47.050Z,7.22
2023-05-14T20:56:50.009Z,7.30
2023-05-14T20:58:52.809Z,6.72
2023-05-14T21:00:55.844Z,7.50
2023-05-14T21:03:00.617Z,6.45
2023-05-14T21:05:04.313Z,6.40
2023-05-14T21:07:07.702Z,6.78
2023-05-14T21:09:11.139Z,6.65
2023-05-14T21:11:15.468Z,7.43
2023-05-14T21:13:18.439Z,8.80
2023-05-14T21:15:21.602Z,9.15
2023-05-14T21:17:24.725Z,8.75
2023-05-14T21:19:27.729Z,9.45
2023-05-14T21:21:30.640Z,7.95
2023-05-14T21:23:33.544Z,7.30
2023-05-14T21:25:36.789Z,6.30
2023-05-14T21:27:41.235Z,5.80
2023-05-14T21:29:46.562Z,5.95
2023-05-14T21:31:49.517Z,5.90
2023-05-14T21:33:52.493Z,5.53
2023-05-14T21:35:55.485Z,4.93
2023-05-14T21:37:58.628Z,5.20
2023-05-14T21:40:01.456Z,5.10
2023-05-14T21:42:05.127Z,5.28
2023-05-14T21:44:09.469Z,6.20
2023-05-14T21:46:12.716Z,4.97
2023-05-14T21:48:15.928Z,5.43
2023-05-14T21:50:19.329Z,5.10
2023-05-14T21:52:22.286Z,4.80
2023-05-14T21:54:25.279Z,5.00
2023-05-14T21:56:28.194Z,4.80
2023-05-14T21:58:31.077Z,5.10
2023-05-14T22:00:35.609Z,4.95
2023-05-14T22:02:38.572Z,5.20
2023-05-14T22:04:41.457Z,5.20
2023-05-14T22:06:44.758Z,4.85
2023-05-14T22:08:47.557Z,4.50
2023-05-14T22:10:50.650Z,5.05
2023-05-14T22:12:53.565Z,5.00
2023-05-14T22:14:56.438Z,5.13
2023-05-14T22:17:00.788Z,4.68
2023-05-14T22:19:05.350Z,5.25
2023-05-14T22:21:09.515Z,4.70
2023-05-14T22:23:12.401Z,4.68
2023-05-14T22:25:15.364Z,4.05
2023-05-14T22:27:18.312Z,3.95
2023-05-14T22:29:21.315Z,4.43
2023-05-14T22:31:24.320Z,4.10
2023-05-14T22:33:28.677Z,4.45
2023-05-14T22:35:31.577Z,4.22
2023-05-14T22:37:34.497Z,4.55
2023-05-14T22:39:37.712Z,4.15
2023-05-14T22:41:40.704Z,4.47
2023-05-14T22:43:43.760Z,4.20
2023-05-14T22:45:46.649Z,4.53
2023-05-14T22:47:49.609Z,4.60
2023-05-14T22:49:53.990Z,5.20
2023-05-14T22:51:57.077Z,5.40
2023-05-14T22:54:00.154Z,5.07
2023-05-14T22:56:03.577Z,5.07
2023-05-14T22:58:07.269Z,5.18
2023-05-14T23:00:11.474Z,4.90
2023-05-14T23:02:14.487Z,5.43
2023-05-14T23:04:17.542Z,4.85
2023-05-14T23:06:21.941Z,5.32
2023-05-14T23:08:25.141Z,5.07
2023-05-14T23:10:28.368Z,4.78
2023-05-14T23:12:31.371Z,5.55
2023-05-14T23:14:34.300Z,6.00
2023-05-14T23:16:37.241Z,5.55
2023-05-14T23:18:40.490Z,5.82
2023-05-14T23:20:44.054Z,5.35
2023-05-14T23:22:48.537Z,5.35
2023-05-14T23:24:51.637Z,5.80
2023-05-14T23:26:54.657Z,5.82
2023-05-14T23:28:57.619Z,5.65
2023-05-14T23:31:00.503Z,5.22
2023-05-14T23:33:03.523Z,5.30
2023-05-14T23:35:06.867Z,5.97
2023-05-14T23:37:09.976Z,5.57
2023-05-14T23:39:14.604Z,5.57
2023-05-14T23:41:17.579Z,5.60
2023-05-14T23:43:20.427Z,5.47
2023-05-14T23:45:23.579Z,5.50
2023-05-14T23:47:26.753Z,5.55
2023-05-14T23:49:29.704Z,5.68
2023-05-14T23:51:32.590Z,5.78
2023-05-14T23:53:35.667Z,5.03
2023-05-14T23:55:40.238Z,5.15
2023-05-14T23:57:43.155Z,5.43
2023-05-14T23:59:46.484Z,5.35
